ABX3116 KRFD-KMHT
Flight info
| Callsign | ABX3116 |
|---|---|
| Flight time | 1h 51m |
| Altitude | 37000 |
| Route | VEENA FNT Q818 DERLO Q935 PONCT ROZZE2 |
| Aircraft | B763/H-SDE3FGHIM3RWXY/LB1 |
Departure
| Time | 2026-05-04 13:59 |
|---|---|
| Airport | Chicago Rockford International Airport (KRFD) |
Arrival
| Time | 2026-05-04 15:50 |
|---|---|
| Airport | Manchester-Boston Regional Airport (KMHT) |
| Time | Latitude | Longitude | Altitude | Speed | Heading |
|---|---|---|---|---|---|
| 2026-05-04 13:44 | 42.19655 | -89.11159 | 753 ft | 0 kts | 245° |
| 2026-05-04 13:50 | 42.19655 | -89.11158 | 753 ft | 0 kts | 245° |
| 2026-05-04 13:50 | 42.19659 | -89.11146 | 753 ft | 2 kts | 245° |
| 2026-05-04 13:51 | 42.19665 | -89.11128 | 753 ft | 2 kts | 245° |
| 2026-05-04 13:51 | 42.19669 | -89.11116 | 753 ft | 2 kts | 245° |
| 2026-05-04 13:51 | 42.19677 | -89.11099 | 753 ft | 2 kts | 226° |
| 2026-05-04 13:51 | 42.19693 | -89.11083 | 754 ft | 2 kts | 207° |
| 2026-05-04 13:52 | 42.19716 | -89.11073 | 754 ft | 2 kts | 182° |
| 2026-05-04 13:52 | 42.19731 | -89.11074 | 753 ft | 2 kts | 168° |
| 2026-05-04 13:52 | 42.19742 | -89.11079 | 754 ft | 0 kts | 156° |
| 2026-05-04 13:53 | 42.19746 | -89.11082 | 754 ft | 0 kts | 155° |
| 2026-05-04 13:54 | 42.19746 | -89.11081 | 753 ft | 0 kts | 155° |
| 2026-05-04 13:54 | 42.19739 | -89.11077 | 753 ft | 3 kts | 155° |
| 2026-05-04 13:54 | 42.19588 | -89.10984 | 753 ft | 10 kts | 156° |
| 2026-05-04 13:55 | 42.19527 | -89.10884 | 753 ft | 18 kts | 79° |
| 2026-05-04 13:55 | 42.19673 | -89.10437 | 753 ft | 37 kts | 65° |
| 2026-05-04 13:55 | 42.19793 | -89.10086 | 753 ft | 44 kts | 65° |
| 2026-05-04 13:56 | 42.19923 | -89.09705 | 753 ft | 44 kts | 65° |
| 2026-05-04 13:56 | 42.20041 | -89.09407 | 753 ft | 24 kts | 45° |
| 2026-05-04 13:56 | 42.20322 | -89.09113 | 753 ft | 25 kts | 5° |
| 2026-05-04 13:57 | 42.20516 | -89.09086 | 753 ft | 30 kts | 13° |
| 2026-05-04 13:57 | 42.20565 | -89.08892 | 753 ft | 19 kts | 136° |
| 2026-05-04 13:58 | 42.19983 | -89.08935 | 754 ft | 89 kts | 185° |
| 2026-05-04 13:58 | 42.18101 | -89.09175 | 884 ft | 172 kts | 186° |
| 2026-05-04 13:58 | 42.16857 | -89.09076 | 1323 ft | 192 kts | 160° |
| 2026-05-04 13:59 | 42.15499 | -89.07209 | 1793 ft | 241 kts | 113° |
| 2026-05-04 13:59 | 42.15282 | -89.05664 | 2187 ft | 259 kts | 91° |
| 2026-05-04 13:59 | 42.17080 | -89.01327 | 3663 ft | 286 kts | 27° |
| 2026-05-04 14:00 | 42.18877 | -89.00314 | 4715 ft | 282 kts | 14° |
| 2026-05-04 14:00 | 42.22588 | -88.98605 | 6694 ft | 287 kts | 14° |
| 2026-05-04 14:00 | 42.24481 | -88.97728 | 7620 ft | 291 kts | 14° |
| 2026-05-04 14:01 | 42.26384 | -88.96780 | 8552 ft | 297 kts | 20° |
| 2026-05-04 14:01 | 42.28180 | -88.95356 | 9415 ft | 307 kts | 32° |
| 2026-05-04 14:01 | 42.31484 | -88.91393 | 10807 ft | 335 kts | 42° |
| 2026-05-04 14:02 | 42.33136 | -88.89056 | 11337 ft | 354 kts | 44° |
| 2026-05-04 14:02 | 42.34815 | -88.86565 | 11921 ft | 371 kts | 44° |
| 2026-05-04 14:02 | 42.36587 | -88.83868 | 12447 ft | 390 kts | 45° |
| 2026-05-04 14:02 | 42.38404 | -88.81062 | 12973 ft | 408 kts | 45° |
| 2026-05-04 14:03 | 42.40278 | -88.78142 | 13916 ft | 413 kts | 45° |
| 2026-05-04 14:03 | 42.42182 | -88.75166 | 14713 ft | 423 kts | 45° |
| 2026-05-04 14:03 | 42.44092 | -88.72172 | 15622 ft | 428 kts | 46° |
| 2026-05-04 14:03 | 42.46067 | -88.69071 | 16441 ft | 435 kts | 45° |
| 2026-05-04 14:04 | 42.50053 | -88.62797 | 18059 ft | 446 kts | 46° |
| 2026-05-04 14:04 | 42.52088 | -88.59589 | 18821 ft | 452 kts | 45° |
| 2026-05-04 14:04 | 42.54148 | -88.56335 | 19664 ft | 456 kts | 45° |
| 2026-05-04 14:05 | 42.58298 | -88.49774 | 21230 ft | 465 kts | 45° |
| 2026-05-04 14:05 | 42.60395 | -88.46452 | 22003 ft | 469 kts | 45° |
| 2026-05-04 14:05 | 42.62529 | -88.43070 | 22662 ft | 475 kts | 45° |
| 2026-05-04 14:06 | 42.64694 | -88.39631 | 23489 ft | 478 kts | 45° |
| 2026-05-04 14:06 | 42.66816 | -88.36184 | 24140 ft | 484 kts | 49° |
| 2026-05-04 14:06 | 42.68667 | -88.32299 | 24804 ft | 494 kts | 59° |
| 2026-05-04 14:06 | 42.70058 | -88.28042 | 25462 ft | 502 kts | 68° |
| 2026-05-04 14:07 | 42.70981 | -88.23376 | 26212 ft | 507 kts | 78° |
| 2026-05-04 14:07 | 42.71419 | -88.18655 | 26775 ft | 513 kts | 83° |
| 2026-05-04 14:07 | 42.71773 | -88.13813 | 27374 ft | 516 kts | 82° |
| 2026-05-04 14:07 | 42.72138 | -88.08971 | 28017 ft | 519 kts | 82° |
| 2026-05-04 14:08 | 42.72628 | -88.02450 | 28690 ft | 526 kts | 82° |
| 2026-05-04 14:08 | 42.72875 | -87.99143 | 29068 ft | 527 kts | 82° |
| 2026-05-04 14:08 | 42.73241 | -87.94212 | 29868 ft | 524 kts | 82° |
| 2026-05-04 14:08 | 42.73607 | -87.89274 | 30515 ft | 524 kts | 82° |
| 2026-05-04 14:09 | 42.74326 | -87.79494 | 31832 ft | 522 kts | 82° |
| 2026-05-04 14:09 | 42.74683 | -87.74580 | 32503 ft | 520 kts | 82° |
| 2026-05-04 14:10 | 42.75390 | -87.64788 | 33734 ft | 516 kts | 82° |
| 2026-05-04 14:10 | 42.75738 | -87.59909 | 34359 ft | 514 kts | 82° |
| 2026-05-04 14:10 | 42.76085 | -87.55035 | 34868 ft | 514 kts | 81° |
| 2026-05-04 14:10 | 42.76426 | -87.50217 | 35264 ft | 514 kts | 82° |
| 2026-05-04 14:11 | 42.76772 | -87.45304 | 35662 ft | 514 kts | 82° |
| 2026-05-04 14:11 | 42.77448 | -87.35610 | 36355 ft | 514 kts | 82° |
| 2026-05-04 14:11 | 42.77780 | -87.30781 | 36650 ft | 511 kts | 82° |
| 2026-05-04 14:12 | 42.78435 | -87.21195 | 36667 ft | 509 kts | 82° |
| 2026-05-04 14:13 | 42.79402 | -87.06809 | 36672 ft | 511 kts | 82° |
| 2026-05-04 14:13 | 42.80042 | -86.97160 | 36673 ft | 512 kts | 82° |
| 2026-05-04 14:14 | 42.80673 | -86.87518 | 36666 ft | 512 kts | 82° |
| 2026-05-04 14:14 | 42.81596 | -86.73142 | 36674 ft | 509 kts | 82° |
| 2026-05-04 14:15 | 42.82806 | -86.53896 | 36676 ft | 510 kts | 82° |
| 2026-05-04 14:16 | 42.83686 | -86.39538 | 36679 ft | 508 kts | 82° |
| 2026-05-04 14:17 | 42.84550 | -86.25161 | 36694 ft | 509 kts | 83° |
| 2026-05-04 14:18 | 42.85493 | -86.09100 | 36689 ft | 509 kts | 83° |
| 2026-05-04 14:19 | 42.86500 | -85.91512 | 36686 ft | 510 kts | 83° |
| 2026-05-04 14:19 | 42.87128 | -85.80301 | 36685 ft | 509 kts | 83° |
| 2026-05-04 14:20 | 42.87569 | -85.72298 | 36699 ft | 509 kts | 83° |
| 2026-05-04 14:20 | 42.88092 | -85.62673 | 36701 ft | 510 kts | 83° |
| 2026-05-04 14:21 | 42.88860 | -85.48254 | 36706 ft | 509 kts | 83° |
| 2026-05-04 14:21 | 42.89362 | -85.38657 | 36706 ft | 510 kts | 83° |
| 2026-05-04 14:22 | 42.89856 | -85.29036 | 36697 ft | 510 kts | 83° |
| 2026-05-04 14:22 | 42.90343 | -85.19405 | 36695 ft | 511 kts | 83° |
| 2026-05-04 14:23 | 42.91061 | -85.04881 | 36693 ft | 511 kts | 83° |
| 2026-05-04 14:24 | 42.91529 | -84.95243 | 36693 ft | 511 kts | 83° |
| 2026-05-04 14:24 | 42.91987 | -84.85617 | 36693 ft | 510 kts | 83° |
| 2026-05-04 14:25 | 42.92437 | -84.75974 | 36686 ft | 509 kts | 83° |
| 2026-05-04 14:25 | 42.93100 | -84.61457 | 36691 ft | 510 kts | 83° |
| 2026-05-04 14:26 | 42.93528 | -84.51860 | 36699 ft | 509 kts | 83° |
| 2026-05-04 14:26 | 42.93952 | -84.42194 | 36707 ft | 510 kts | 83° |
| 2026-05-04 14:27 | 42.94367 | -84.32531 | 36698 ft | 510 kts | 84° |
| 2026-05-04 14:27 | 42.94838 | -84.21307 | 36708 ft | 509 kts | 84° |
| 2026-05-04 14:28 | 42.95168 | -84.13309 | 36707 ft | 509 kts | 84° |
| 2026-05-04 14:28 | 42.95556 | -84.03692 | 36704 ft | 509 kts | 84° |
| 2026-05-04 14:29 | 42.96311 | -83.84403 | 36714 ft | 509 kts | 84° |
| 2026-05-04 14:30 | 42.96676 | -83.74789 | 36712 ft | 509 kts | 83° |
| 2026-05-04 14:31 | 42.97374 | -83.60360 | 36709 ft | 509 kts | 83° |
| 2026-05-04 14:32 | 42.98282 | -83.41093 | 36711 ft | 509 kts | 83° |
| 2026-05-04 14:32 | 42.98721 | -83.31528 | 36704 ft | 510 kts | 83° |
| 2026-05-04 14:33 | 42.99156 | -83.21870 | 36698 ft | 510 kts | 83° |
| 2026-05-04 14:33 | 42.99583 | -83.12186 | 36695 ft | 511 kts | 83° |
| 2026-05-04 14:34 | 43.00003 | -83.02483 | 36709 ft | 511 kts | 83° |
| 2026-05-04 14:34 | 43.00412 | -82.92843 | 36711 ft | 510 kts | 83° |
| 2026-05-04 14:35 | 43.00814 | -82.83203 | 36721 ft | 510 kts | 83° |
| 2026-05-04 14:35 | 43.01206 | -82.73562 | 36737 ft | 510 kts | 83° |
| 2026-05-04 14:36 | 43.01593 | -82.63879 | 36736 ft | 510 kts | 83° |
| 2026-05-04 14:36 | 43.01969 | -82.54246 | 36740 ft | 509 kts | 83° |
| 2026-05-04 14:37 | 43.02337 | -82.44607 | 36745 ft | 509 kts | 83° |
| 2026-05-04 14:37 | 43.02695 | -82.35013 | 36742 ft | 508 kts | 83° |
| 2026-05-04 14:38 | 43.03048 | -82.25355 | 36737 ft | 510 kts | 84° |
| 2026-05-04 14:38 | 43.03391 | -82.15713 | 36739 ft | 511 kts | 84° |
| 2026-05-04 14:39 | 43.03729 | -82.06036 | 36733 ft | 510 kts | 83° |
| 2026-05-04 14:39 | 43.04110 | -81.94802 | 36743 ft | 509 kts | 83° |
| 2026-05-04 14:40 | 43.04534 | -81.81868 | 36732 ft | 511 kts | 83° |
| 2026-05-04 14:40 | 43.04843 | -81.72184 | 36730 ft | 509 kts | 83° |
| 2026-05-04 14:41 | 43.05141 | -81.62576 | 36723 ft | 510 kts | 83° |
| 2026-05-04 14:42 | 43.05717 | -81.43218 | 36746 ft | 511 kts | 84° |
| 2026-05-04 14:42 | 43.05993 | -81.33492 | 36754 ft | 512 kts | 84° |
| 2026-05-04 14:43 | 43.06263 | -81.23743 | 36763 ft | 514 kts | 84° |
| 2026-05-04 14:43 | 43.06565 | -81.12408 | 36764 ft | 514 kts | 84° |
| 2026-05-04 14:44 | 43.06397 | -81.04261 | 36765 ft | 517 kts | 90° |
| 2026-05-04 14:44 | 43.06016 | -80.94411 | 36760 ft | 517 kts | 90° |
| 2026-05-04 14:45 | 43.05618 | -80.84673 | 36757 ft | 515 kts | 90° |
| 2026-05-04 14:45 | 43.05209 | -80.74937 | 36762 ft | 514 kts | 90° |
| 2026-05-04 14:46 | 43.04786 | -80.65140 | 36767 ft | 515 kts | 90° |
| 2026-05-04 14:46 | 43.04282 | -80.53713 | 36769 ft | 514 kts | 90° |
| 2026-05-04 14:47 | 43.03920 | -80.45660 | 36774 ft | 514 kts | 90° |
| 2026-05-04 14:47 | 43.03397 | -80.34258 | 36776 ft | 515 kts | 91° |
| 2026-05-04 14:48 | 43.03019 | -80.26160 | 36769 ft | 514 kts | 91° |
| 2026-05-04 14:48 | 43.02552 | -80.16330 | 36771 ft | 517 kts | 91° |
| 2026-05-04 14:49 | 43.02081 | -80.06600 | 36774 ft | 516 kts | 91° |
| 2026-05-04 14:49 | 43.01598 | -79.96780 | 36772 ft | 515 kts | 91° |
| 2026-05-04 14:50 | 43.01112 | -79.87097 | 36776 ft | 514 kts | 91° |
| 2026-05-04 14:50 | 43.00617 | -79.77357 | 36783 ft | 514 kts | 91° |
| 2026-05-04 14:51 | 43.00116 | -79.67692 | 36781 ft | 513 kts | 91° |
| 2026-05-04 14:51 | 42.99603 | -79.57949 | 36790 ft | 512 kts | 91° |
| 2026-05-04 14:52 | 42.99086 | -79.48286 | 36788 ft | 511 kts | 90° |
| 2026-05-04 14:52 | 42.98472 | -79.36990 | 36785 ft | 512 kts | 91° |
| 2026-05-04 14:53 | 42.98026 | -79.28920 | 36783 ft | 512 kts | 91° |
| 2026-05-04 14:53 | 42.97396 | -79.17687 | 36788 ft | 513 kts | 91° |
| 2026-05-04 14:54 | 42.96843 | -79.08005 | 36805 ft | 513 kts | 91° |
| 2026-05-04 14:54 | 42.96377 | -78.99937 | 36807 ft | 513 kts | 91° |
| 2026-05-04 14:55 | 42.95222 | -78.88660 | 36802 ft | 515 kts | 97° |
| 2026-05-04 14:55 | 42.94226 | -78.80669 | 36803 ft | 515 kts | 97° |
| 2026-05-04 14:56 | 42.93370 | -78.71022 | 36818 ft | 512 kts | 88° |
| 2026-05-04 14:56 | 42.93168 | -78.61280 | 36811 ft | 512 kts | 88° |
| 2026-05-04 14:57 | 42.92971 | -78.51611 | 36800 ft | 511 kts | 88° |
| 2026-05-04 14:57 | 42.92775 | -78.41998 | 36811 ft | 512 kts | 88° |
| 2026-05-04 14:58 | 42.92573 | -78.32323 | 36800 ft | 510 kts | 89° |
| 2026-05-04 14:58 | 42.92364 | -78.22685 | 36799 ft | 511 kts | 89° |
| 2026-05-04 14:59 | 42.92145 | -78.12970 | 36811 ft | 513 kts | 89° |
| 2026-05-04 15:00 | 42.91802 | -77.98406 | 36800 ft | 515 kts | 89° |
| 2026-05-04 15:00 | 42.91563 | -77.88704 | 36805 ft | 514 kts | 89° |
| 2026-05-04 15:01 | 42.91190 | -77.74151 | 36806 ft | 512 kts | 89° |
| 2026-05-04 15:01 | 42.90888 | -77.62899 | 36812 ft | 512 kts | 89° |
| 2026-05-04 15:02 | 42.90665 | -77.54846 | 36816 ft | 513 kts | 89° |
| 2026-05-04 15:02 | 42.90390 | -77.45151 | 37040 ft | 514 kts | 89° |
| 2026-05-04 15:03 | 42.90248 | -77.40273 | 36835 ft | 516 kts | 89° |
| 2026-05-04 15:03 | 42.90105 | -77.35455 | 36829 ft | 510 kts | 89° |
| 2026-05-04 15:03 | 42.89816 | -77.25789 | 36826 ft | 513 kts | 90° |
| 2026-05-04 15:04 | 42.89514 | -77.16057 | 36818 ft | 516 kts | 90° |
| 2026-05-04 15:04 | 42.89223 | -77.06333 | 36822 ft | 514 kts | 90° |
| 2026-05-04 15:05 | 42.88925 | -76.96575 | 36827 ft | 513 kts | 90° |
| 2026-05-04 15:05 | 42.88622 | -76.86914 | 36838 ft | 514 kts | 89° |
| 2026-05-04 15:06 | 42.88256 | -76.75580 | 36842 ft | 513 kts | 90° |
| 2026-05-04 15:07 | 42.87824 | -76.62668 | 36829 ft | 511 kts | 90° |
| 2026-05-04 15:07 | 42.87435 | -76.51383 | 36828 ft | 510 kts | 90° |
| 2026-05-04 15:08 | 42.87094 | -76.41726 | 36836 ft | 510 kts | 90° |
| 2026-05-04 15:08 | 42.86805 | -76.33721 | 36828 ft | 510 kts | 91° |
| 2026-05-04 15:09 | 42.86443 | -76.23936 | 36825 ft | 511 kts | 90° |
| 2026-05-04 15:09 | 42.86147 | -76.16098 | 36827 ft | 509 kts | 91° |
| 2026-05-04 15:10 | 42.85528 | -76.00125 | 36825 ft | 509 kts | 90° |
| 2026-05-04 15:11 | 42.85010 | -75.87283 | 36825 ft | 510 kts | 90° |
| 2026-05-04 15:11 | 42.84544 | -75.76074 | 36828 ft | 511 kts | 91° |
| 2026-05-04 15:12 | 42.84203 | -75.68030 | 36834 ft | 510 kts | 91° |
| 2026-05-04 15:12 | 42.83789 | -75.58459 | 36827 ft | 509 kts | 91° |
| 2026-05-04 15:13 | 42.83366 | -75.48843 | 36839 ft | 510 kts | 91° |
| 2026-05-04 15:13 | 42.82934 | -75.39213 | 36844 ft | 511 kts | 91° |
| 2026-05-04 15:14 | 42.82421 | -75.28011 | 36838 ft | 510 kts | 92° |
| 2026-05-04 15:14 | 42.81972 | -75.18385 | 36835 ft | 510 kts | 92° |
| 2026-05-04 15:15 | 42.81592 | -75.10390 | 36838 ft | 511 kts | 92° |
| 2026-05-04 15:15 | 42.81127 | -75.00745 | 36838 ft | 510 kts | 92° |
| 2026-05-04 15:16 | 42.80332 | -74.84647 | 36852 ft | 511 kts | 92° |
| 2026-05-04 15:17 | 42.79680 | -74.71790 | 36842 ft | 509 kts | 92° |
| 2026-05-04 15:17 | 42.78852 | -74.55817 | 36862 ft | 511 kts | 92° |
| 2026-05-04 15:18 | 42.78421 | -74.47702 | 36863 ft | 510 kts | 92° |
| 2026-05-04 15:19 | 42.77560 | -74.31765 | 36880 ft | 509 kts | 93° |
| 2026-05-04 15:19 | 42.76758 | -74.17286 | 36278 ft | 516 kts | 93° |
| 2026-05-04 15:20 | 42.76489 | -74.12524 | 36282 ft | 500 kts | 93° |
| 2026-05-04 15:20 | 42.76311 | -74.09391 | 36146 ft | 495 kts | 92° |
| 2026-05-04 15:20 | 42.76048 | -74.04765 | 35689 ft | 496 kts | 92° |
| 2026-05-04 15:20 | 42.75695 | -73.98611 | 34908 ft | 494 kts | 92° |
| 2026-05-04 15:21 | 42.75426 | -73.93969 | 34033 ft | 493 kts | 91° |
| 2026-05-04 15:21 | 42.75155 | -73.89327 | 33086 ft | 493 kts | 91° |
| 2026-05-04 15:21 | 42.74738 | -73.81621 | 31019 ft | 493 kts | 86° |
| 2026-05-04 15:22 | 42.74842 | -73.77058 | 29592 ft | 490 kts | 82° |
| 2026-05-04 15:22 | 42.75074 | -73.70964 | 27800 ft | 487 kts | 83° |
| 2026-05-04 15:22 | 42.75405 | -73.61958 | 26150 ft | 466 kts | 83° |
| 2026-05-04 15:23 | 42.75560 | -73.57637 | 25561 ft | 461 kts | 83° |
| 2026-05-04 15:23 | 42.75717 | -73.53268 | 25013 ft | 462 kts | 83° |
| 2026-05-04 15:23 | 42.75819 | -73.50397 | 24681 ft | 463 kts | 83° |
| 2026-05-04 15:23 | 42.76024 | -73.44544 | 23911 ft | 460 kts | 83° |
| 2026-05-04 15:24 | 42.76315 | -73.35988 | 22859 ft | 451 kts | 84° |
| 2026-05-04 15:24 | 42.76553 | -73.28919 | 22019 ft | 450 kts | 85° |
| 2026-05-04 15:25 | 42.76692 | -73.24695 | 21502 ft | 448 kts | 85° |
| 2026-05-04 15:25 | 42.76830 | -73.20492 | 20998 ft | 444 kts | 85° |
| 2026-05-04 15:25 | 42.76964 | -73.16303 | 20574 ft | 440 kts | 85° |
| 2026-05-04 15:26 | 42.77260 | -73.06884 | 20091 ft | 408 kts | 85° |
| 2026-05-04 15:26 | 42.77413 | -73.03109 | 19964 ft | 396 kts | 83° |
| 2026-05-04 15:26 | 42.77779 | -72.96748 | 19025 ft | 407 kts | 83° |
| 2026-05-04 15:27 | 42.77990 | -72.92966 | 18504 ft | 402 kts | 83° |
| 2026-05-04 15:27 | 42.78400 | -72.85473 | 17486 ft | 393 kts | 83° |
| 2026-05-04 15:28 | 42.78798 | -72.78127 | 16551 ft | 389 kts | 84° |
| 2026-05-04 15:28 | 42.78992 | -72.74506 | 16124 ft | 386 kts | 83° |
| 2026-05-04 15:28 | 42.79390 | -72.67255 | 15166 ft | 383 kts | 83° |
| 2026-05-04 15:29 | 42.79586 | -72.63669 | 14691 ft | 378 kts | 84° |
| 2026-05-04 15:30 | 42.80344 | -72.49616 | 12924 ft | 370 kts | 84° |
| 2026-05-04 15:30 | 42.80938 | -72.37997 | 11260 ft | 366 kts | 84° |
| 2026-05-04 15:31 | 42.81226 | -72.32289 | 10484 ft | 364 kts | 86° |
| 2026-05-04 15:31 | 42.81398 | -72.28852 | 10001 ft | 356 kts | 86° |
| 2026-05-04 15:32 | 42.81905 | -72.18566 | 9637 ft | 310 kts | 86° |
| 2026-05-04 15:32 | 42.82211 | -72.12592 | 9647 ft | 318 kts | 85° |
| 2026-05-04 15:33 | 42.82481 | -72.07587 | 9608 ft | 322 kts | 85° |
| 2026-05-04 15:34 | 42.82991 | -71.97661 | 9263 ft | 317 kts | 87° |
| 2026-05-04 15:34 | 42.83118 | -71.94666 | 8782 ft | 322 kts | 83° |
| 2026-05-04 15:34 | 42.84444 | -71.90049 | 8103 ft | 307 kts | 57° |
| 2026-05-04 15:35 | 42.86523 | -71.85070 | 7682 ft | 300 kts | 57° |
| 2026-05-04 15:35 | 42.87561 | -71.82623 | 7477 ft | 299 kts | 57° |
| 2026-05-04 15:35 | 42.88954 | -71.79353 | 7196 ft | 300 kts | 57° |
| 2026-05-04 15:36 | 42.90702 | -71.75256 | 6826 ft | 298 kts | 58° |
| 2026-05-04 15:36 | 42.91733 | -71.72841 | 6598 ft | 296 kts | 58° |
| 2026-05-04 15:36 | 42.92768 | -71.70414 | 6371 ft | 293 kts | 58° |
| 2026-05-04 15:37 | 42.93795 | -71.68004 | 6160 ft | 293 kts | 58° |
| 2026-05-04 15:37 | 42.94820 | -71.65597 | 5947 ft | 295 kts | 58° |
| 2026-05-04 15:37 | 42.96182 | -71.62399 | 5607 ft | 295 kts | 58° |
| 2026-05-04 15:37 | 42.97205 | -71.59992 | 5368 ft | 292 kts | 58° |
| 2026-05-04 15:38 | 42.97883 | -71.58398 | 5241 ft | 289 kts | 58° |
| 2026-05-04 15:38 | 42.99201 | -71.55291 | 5148 ft | 274 kts | 58° |
| 2026-05-04 15:38 | 42.99831 | -71.53805 | 5086 ft | 264 kts | 58° |
| 2026-05-04 15:38 | 43.01029 | -71.50977 | 5056 ft | 256 kts | 57° |
| 2026-05-04 15:39 | 43.01961 | -71.48897 | 5055 ft | 256 kts | 46° |
| 2026-05-04 15:39 | 43.03206 | -71.47181 | 5083 ft | 257 kts | 38° |
| 2026-05-04 15:39 | 43.05830 | -71.43845 | 5110 ft | 256 kts | 39° |
| 2026-05-04 15:40 | 43.06696 | -71.42741 | 5115 ft | 258 kts | 39° |
| 2026-05-04 15:40 | 43.08006 | -71.41068 | 5105 ft | 257 kts | 38° |
| 2026-05-04 15:40 | 43.09740 | -71.38854 | 5092 ft | 253 kts | 38° |
| 2026-05-04 15:40 | 43.10996 | -71.37251 | 5087 ft | 252 kts | 38° |
| 2026-05-04 15:41 | 43.11854 | -71.36155 | 5099 ft | 252 kts | 38° |
| 2026-05-04 15:41 | 43.13531 | -71.34014 | 5222 ft | 245 kts | 39° |
| 2026-05-04 15:41 | 43.14353 | -71.32963 | 5240 ft | 240 kts | 38° |
| 2026-05-04 15:41 | 43.15965 | -71.30907 | 5247 ft | 242 kts | 39° |
| 2026-05-04 15:42 | 43.17210 | -71.29321 | 5239 ft | 243 kts | 39° |
| 2026-05-04 15:42 | 43.17939 | -71.28143 | 5203 ft | 247 kts | 57° |
| 2026-05-04 15:42 | 43.18438 | -71.25891 | 4978 ft | 255 kts | 88° |
| 2026-05-04 15:42 | 43.18117 | -71.23579 | 4386 ft | 245 kts | 121° |
| 2026-05-04 15:43 | 43.17067 | -71.21907 | 3821 ft | 223 kts | 155° |
| 2026-05-04 15:43 | 43.15672 | -71.21344 | 3276 ft | 204 kts | 189° |
| 2026-05-04 15:43 | 43.14367 | -71.21733 | 3002 ft | 187 kts | 204° |
| 2026-05-04 15:43 | 43.13134 | -71.22221 | 2836 ft | 181 kts | 202° |
| 2026-05-04 15:44 | 43.11974 | -71.22662 | 2798 ft | 161 kts | 203° |
| 2026-05-04 15:44 | 43.10538 | -71.23220 | 2907 ft | 167 kts | 204° |
| 2026-05-04 15:44 | 43.09786 | -71.23516 | 2918 ft | 168 kts | 204° |
| 2026-05-04 15:44 | 43.08659 | -71.23953 | 2901 ft | 165 kts | 204° |
| 2026-05-04 15:45 | 43.07484 | -71.25008 | 2811 ft | 154 kts | 237° |
| 2026-05-04 15:45 | 43.06839 | -71.26210 | 2709 ft | 157 kts | 233° |
| 2026-05-04 15:45 | 43.06332 | -71.26936 | 2471 ft | 163 kts | 228° |
| 2026-05-04 15:45 | 43.05315 | -71.28257 | 2189 ft | 144 kts | 228° |
| 2026-05-04 15:46 | 43.04674 | -71.29208 | 2071 ft | 124 kts | 237° |
| 2026-05-04 15:46 | 43.04348 | -71.29800 | 2041 ft | 108 kts | 236° |
| 2026-05-04 15:46 | 43.03723 | -71.30776 | 1543 ft | 114 kts | 230° |
| 2026-05-04 15:46 | 43.03335 | -71.31329 | 1555 ft | 124 kts | 232° |
| 2026-05-04 15:47 | 43.02654 | -71.32397 | 2131 ft | 111 kts | 235° |
| 2026-05-04 15:47 | 43.02056 | -71.33233 | 1999 ft | 125 kts | 224° |
| 2026-05-04 15:47 | 43.01602 | -71.33714 | 1908 ft | 128 kts | 224° |
| 2026-05-04 15:47 | 43.00672 | -71.34817 | 1847 ft | 137 kts | 227° |
| 2026-05-04 15:48 | 43.00217 | -71.35411 | 1786 ft | 136 kts | 227° |
| 2026-05-04 15:48 | 42.99547 | -71.36338 | 1720 ft | 139 kts | 230° |
| 2026-05-04 15:48 | 42.97924 | -71.38474 | 1228 ft | 138 kts | 226° |
| 2026-05-04 15:49 | 42.97231 | -71.39356 | 1028 ft | 135 kts | 226° |
| 2026-05-04 15:49 | 42.96549 | -71.40230 | 858 ft | 137 kts | 226° |
| 2026-05-04 15:49 | 42.96113 | -71.40792 | 749 ft | 135 kts | 225° |
| 2026-05-04 15:49 | 42.95222 | -71.41931 | 430 ft | 136 kts | 224° |
| 2026-05-04 15:50 | 42.94742 | -71.42529 | 368 ft | 142 kts | 224° |
| 2026-05-04 15:50 | 42.93864 | -71.43625 | 233 ft | 118 kts | 222° |
| 2026-05-04 15:50 | 42.93559 | -71.44002 | 228 ft | 77 kts | 223° |
| 2026-05-04 15:50 | 42.93293 | -71.44334 | 228 ft | 19 kts | 223° |
| 2026-05-04 15:51 | 42.93189 | -71.44463 | 225 ft | 20 kts | 222° |
| 2026-05-04 15:51 | 42.93117 | -71.44551 | 224 ft | 21 kts | 223° |
| 2026-05-04 15:51 | 42.93006 | -71.44688 | 221 ft | 22 kts | 222° |
| 2026-05-04 15:51 | 42.92931 | -71.44744 | 220 ft | 9 kts | 178° |
| 2026-05-04 15:52 | 42.92875 | -71.44707 | 221 ft | 8 kts | 135° |
| 2026-05-04 15:52 | 42.92828 | -71.44640 | 222 ft | 6 kts | 134° |
| 2026-05-04 15:52 | 42.92794 | -71.44566 | 223 ft | 15 kts | 111° |
| 2026-05-04 15:52 | 42.92765 | -71.44441 | 224 ft | 27 kts | 107° |
| 2026-05-04 15:53 | 42.92715 | -71.44219 | 225 ft | 15 kts | 117° |
| 2026-05-04 15:53 | 42.92609 | -71.44128 | 224 ft | 23 kts | 157° |
| 2026-05-04 15:53 | 42.92472 | -71.44009 | 221 ft | 14 kts | 95° |
| 2026-05-04 15:53 | 42.92476 | -71.43943 | 222 ft | 5 kts | 101° |
| 2026-05-04 15:54 | 42.92441 | -71.43894 | 221 ft | 0 kts | 158° |
| 2026-05-04 15:54 | 42.92439 | -71.43893 | 221 ft | 0 kts | 158° |